Basalt, Colorado
Current Conditions -  °F | °C
As of 9:53 PM on Friday 28 Nov 2014 (Local Time) from KASE Reporting Station
Clear Clear  
Wind Chill: 25°   Ceiling: Unl
Heat Index: 30°   Visibility: 10mi
Dew Point: 14°   Wind: 5mph
Humidity: 51%   Direction: 210°SSW
Pressure: 30.04"   Gusts: NA
Location:  39.37°N, 107.03°W
Report Text: KASE 290453Z AUTO 21004KT 10SM CLR M01/M10 A3004 RMK AO2 SLP138 T10111100
Loading
Personal Weather Stations






























Interactive Weather Map New forecast layout! Learn more

10-Day Weather Forecast

Advertisements
Track Severe Weather on mobile